Gloversville, New York
Current Conditions -  °F | °C
As of 1:55 PM on Friday 24 Oct 2014 (Local Time) from KNY0 Reporting Station
Overcast Overcast  
Wind Chill:   Ceiling: 2700
Heat Index: 10°   Visibility: 10mi
Dew Point:   Wind: 8mph
Humidity: 73%   Direction: 340°NNW
Pressure: 29.81"   Gusts: 16mph
Location:  43.06°N, 74.34°W
Report Text: KNY0 241755Z AUTO 34007G14KT 10SM OVC027 10/05 A2981 RMK AO2 T00990052 10099 20057
Loading
Personal Weather Stations






























Interactive Weather Map New forecast layout! Learn more

10-Day Weather Forecast

Advertisements
Track Severe Weather on mobile